Decoded Metar for KMLP (MULLAN PASS in ID, USA) (IATA:MLP) | Meteo·Mobile Aviation Weather
aviador You're here:

KMLP Decoded Metar

MULLAN PASS in ID, USA
Report Time2018-11-18 07:53:00
UTC Time2018-11-18 08:41:35
Flight Rules vfr VFR
WindVRB at 03 kt
Visibility9999 m
Phenomena:N/A
Clouds:N/A
Expected CloudBase > 800 ft AGL from Temp-Dew spread
CeilingNone
Temp-6°C (ISA -9)
Dew Point-8°C (86% RH)
AAT-10.0°C
QNH1023 hPa
Density Alt4,649 ft
Elevation6,027 ft
Report Wrong Elevation
Raw Report
KMLP 180753Z AUTO VRB03KT 10SM CLR M06/M08 A3020 RMK AO2 SLP276
T10611083 410171083 $=

Extra information for KMLP:More info

Metar Taf Metar & Taf Last 4 Metars F.Rules Stats Wind Profile Meteogram Temp Stats Airport Information Weather charts Add Link Nearby VenuesMetar ALERT Operation Metar Decoded Social comments

AIRNAV info for KMLP